createdAt,value
2023-05-21T00:00:08.322Z,99.90
2023-05-21T00:02:35.901Z,99.90
2023-05-21T00:05:02.841Z,99.90
2023-05-21T00:07:31.587Z,99.90
2023-05-21T00:09:58.404Z,99.90
2023-05-21T00:12:28.052Z,99.90
2023-05-21T00:14:54.881Z,99.90
2023-05-21T00:17:21.677Z,99.90
2023-05-21T00:19:50.153Z,99.90
2023-05-21T00:22:20.245Z,99.90
2023-05-21T00:24:49.637Z,99.90
2023-05-21T00:27:16.481Z,99.90
2023-05-21T00:29:45.499Z,99.90
2023-05-21T00:32:14.826Z,99.90
2023-05-21T00:34:42.272Z,99.90
2023-05-21T00:37:11.623Z,99.90
2023-05-21T00:39:40.914Z,99.90
2023-05-21T00:42:07.813Z,99.90
2023-05-21T00:44:35.431Z,99.90
2023-05-21T00:47:02.521Z,99.90
2023-05-21T00:49:29.695Z,99.90
2023-05-21T00:51:56.604Z,99.90
2023-05-21T00:54:23.977Z,99.90
2023-05-21T00:56:51.260Z,99.90
2023-05-21T00:59:18.277Z,99.90
2023-05-21T01:01:53.985Z,99.90
2023-05-21T01:04:20.956Z,99.90
2023-05-21T01:06:47.818Z,99.90
2023-05-21T01:09:16.770Z,99.90
2023-05-21T01:11:45.113Z,99.90
2023-05-21T01:14:12.776Z,99.90
2023-05-21T01:16:43.173Z,99.90
2023-05-21T01:19:15.625Z,99.90
2023-05-21T01:21:45.024Z,99.90
2023-05-21T01:24:14.992Z,99.90
2023-05-21T01:26:46.627Z,99.90
2023-05-21T01:29:16.046Z,99.90
2023-05-21T01:31:51.667Z,99.90
2023-05-21T01:34:21.539Z,99.90
2023-05-21T01:36:55.829Z,99.90
2023-05-21T01:39:33.824Z,99.90
2023-05-21T01:42:02.904Z,99.90
2023-05-21T01:44:29.723Z,99.90
2023-05-21T01:46:56.523Z,99.90
2023-05-21T01:49:23.368Z,99.90
2023-05-21T01:51:50.206Z,99.90
2023-05-21T01:54:17.063Z,99.90
2023-05-21T01:56:43.847Z,99.90
2023-05-21T01:59:11.689Z,99.90
2023-05-21T02:01:38.619Z,99.90
2023-05-21T02:04:07.997Z,99.90
2023-05-21T02:06:39.573Z,99.90
2023-05-21T02:09:06.529Z,99.90
2023-05-21T02:11:33.335Z,99.90
2023-05-21T02:14:00.616Z,99.90
2023-05-21T02:16:27.419Z,99.90
2023-05-21T02:18:58.025Z,99.90
2023-05-21T02:21:27.461Z,99.90
2023-05-21T02:23:54.310Z,99.90
2023-05-21T02:26:23.586Z,99.90
2023-05-21T02:28:50.418Z,99.90
2023-05-21T02:31:17.247Z,99.90
2023-05-21T02:33:44.148Z,99.90
2023-05-21T02:36:18.989Z,99.90
2023-05-21T02:38:46.670Z,99.90
2023-05-21T02:41:13.736Z,99.90
2023-05-21T02:43:40.560Z,99.90
2023-05-21T02:46:07.885Z,99.90
2023-05-21T02:48:34.797Z,99.90
2023-05-21T02:51:03.805Z,99.90
2023-05-21T02:53:31.176Z,99.90
2023-05-21T02:56:00.504Z,99.90
2023-05-21T02:58:27.318Z,99.90
2023-05-21T03:00:56.463Z,99.90
2023-05-21T03:03:23.528Z,99.90
2023-05-21T03:05:50.510Z,99.90
2023-05-21T03:08:17.310Z,99.90
2023-05-21T03:10:44.167Z,99.90
2023-05-21T03:13:11.176Z,99.90
2023-05-21T03:15:39.461Z,99.90
2023-05-21T03:18:06.717Z,99.90
2023-05-21T03:20:33.599Z,99.90
2023-05-21T03:23:00.613Z,99.90
2023-05-21T03:25:27.426Z,99.90
2023-05-21T03:27:54.312Z,99.90
2023-05-21T03:30:23.633Z,99.90
2023-05-21T03:32:52.794Z,99.90
2023-05-21T03:35:22.128Z,99.90
2023-05-21T03:37:51.207Z,99.90
2023-05-21T03:40:18.158Z,99.90
2023-05-21T03:42:44.944Z,99.90
2023-05-21T03:45:12.237Z,99.90
2023-05-21T03:47:42.120Z,99.90
2023-05-21T03:50:12.438Z,99.90
2023-05-21T03:52:39.369Z,99.90
2023-05-21T03:55:06.792Z,99.90
2023-05-21T03:57:33.678Z,99.90
2023-05-21T04:00:00.726Z,99.90
2023-05-21T04:02:32.332Z,99.90
2023-05-21T04:04:59.295Z,99.90
2023-05-21T04:07:30.081Z,99.90
2023-05-21T04:09:56.942Z,99.90
2023-05-21T04:12:23.814Z,99.90
2023-05-21T04:14:51.570Z,99.90
2023-05-21T04:17:19.294Z,99.90
2023-05-21T04:19:46.213Z,99.90
2023-05-21T04:22:12.999Z,99.90
2023-05-21T04:24:42.698Z,99.90
2023-05-21T04:27:11.813Z,99.90
2023-05-21T04:29:42.606Z,99.90
2023-05-21T04:32:09.539Z,99.90
2023-05-21T04:34:39.695Z,99.90
2023-05-21T04:37:06.943Z,99.90
2023-05-21T04:39:34.846Z,99.90
2023-05-21T04:42:03.141Z,99.90
2023-05-21T04:44:30.378Z,99.90
2023-05-21T04:47:00.535Z,99.90
2023-05-21T04:49:27.445Z,99.90
2023-05-21T04:51:56.664Z,99.90
2023-05-21T04:54:23.543Z,99.90
2023-05-21T04:56:52.630Z,99.90
2023-05-21T04:59:22.893Z,99.90
2023-05-21T05:01:54.172Z,99.90
2023-05-21T05:04:23.448Z,99.90
2023-05-21T05:06:54.857Z,99.90
2023-05-21T05:09:24.154Z,99.90
2023-05-21T05:11:51.420Z,99.90
2023-05-21T05:14:18.225Z,99.90
2023-05-21T05:16:48.313Z,99.90
2023-05-21T05:19:20.244Z,99.90
2023-05-21T05:21:47.943Z,99.90
2023-05-21T05:24:16.222Z,99.90
2023-05-21T05:26:50.346Z,99.90
2023-05-21T05:29:19.531Z,99.90
2023-05-21T05:31:46.301Z,99.90
2023-05-21T05:34:13.100Z,99.90
2023-05-21T05:36:44.632Z,99.90
2023-05-21T05:39:11.440Z,99.90
2023-05-21T05:41:38.241Z,99.90
2023-05-21T05:44:09.514Z,99.90
2023-05-21T05:46:37.942Z,99.90
2023-05-21T05:49:07.314Z,99.90
2023-05-21T05:51:34.107Z,99.90
2023-05-21T05:54:00.989Z,99.90
2023-05-21T05:56:29.919Z,99.90
2023-05-21T05:58:59.150Z,99.90
2023-05-21T06:01:26.298Z,99.90
2023-05-21T06:03:53.369Z,99.90
2023-05-21T06:06:20.636Z,99.90
2023-05-21T06:08:49.980Z,99.90
2023-05-21T06:11:17.316Z,99.90
2023-05-21T06:13:44.157Z,99.90
2023-05-21T06:16:13.734Z,99.90
2023-05-21T06:18:40.618Z,99.90
2023-05-21T06:21:07.485Z,99.90
2023-05-21T06:23:37.807Z,99.90
2023-05-21T06:26:05.085Z,99.90
2023-05-21T06:28:31.947Z,99.90
2023-05-21T06:30:58.765Z,99.90
2023-05-21T06:33:27.611Z,99.90
2023-05-21T06:35:56.780Z,99.90
2023-05-21T06:38:23.584Z,99.90
2023-05-21T06:40:50.571Z,99.90
2023-05-21T06:43:19.640Z,99.90
2023-05-21T06:45:46.601Z,99.90
2023-05-21T06:48:17.007Z,99.90
2023-05-21T06:50:44.037Z,99.90
2023-05-21T06:53:16.352Z,99.90
2023-05-21T06:55:46.091Z,99.90
2023-05-21T06:58:12.948Z,99.90
2023-05-21T07:00:39.733Z,99.90
2023-05-21T07:03:06.742Z,99.90
2023-05-21T07:05:33.828Z,99.90
2023-05-21T07:08:00.830Z,99.90
2023-05-21T07:10:27.675Z,99.90
2023-05-21T07:12:56.706Z,99.90
2023-05-21T07:15:25.986Z,99.90
2023-05-21T07:17:54.913Z,99.90
2023-05-21T07:20:21.767Z,99.90
2023-05-21T07:22:48.566Z,99.90
2023-05-21T07:25:17.799Z,99.90
2023-05-21T07:27:44.584Z,99.90
2023-05-21T07:30:11.716Z,99.90
2023-05-21T07:32:38.587Z,99.90
2023-05-21T07:35:05.889Z,99.90
2023-05-21T07:37:32.794Z,99.90
2023-05-21T07:39:59.700Z,99.90
2023-05-21T07:42:31.198Z,99.90
2023-05-21T07:45:00.319Z,99.90
2023-05-21T07:47:27.167Z,99.90
2023-05-21T07:49:53.978Z,99.90
2023-05-21T07:52:20.868Z,99.90
2023-05-21T07:54:47.714Z,99.90
2023-05-21T07:57:14.562Z,99.90
2023-05-21T07:59:41.374Z,99.90
2023-05-21T08:02:10.592Z,99.90
2023-05-21T08:04:41.256Z,99.90
2023-05-21T08:07:09.805Z,99.90
2023-05-21T08:09:36.880Z,99.90
2023-05-21T08:12:06.420Z,99.90
2023-05-21T08:14:33.277Z,99.90
2023-05-21T08:17:02.410Z,99.90
2023-05-21T08:19:29.327Z,99.90
2023-05-21T08:21:56.244Z,99.90
2023-05-21T08:24:26.478Z,99.90
2023-05-21T08:26:53.391Z,99.90
2023-05-21T08:29:20.250Z,99.90
2023-05-21T08:31:47.059Z,99.90
2023-05-21T08:34:13.870Z,99.90
2023-05-21T08:36:43.308Z,99.90
2023-05-21T08:39:10.135Z,99.90
2023-05-21T08:41:39.550Z,99.90
2023-05-21T08:44:08.360Z,99.90
2023-05-21T08:46:35.255Z,99.90
2023-05-21T08:49:03.161Z,99.90
2023-05-21T08:51:31.170Z,99.90
2023-05-21T08:54:00.364Z,99.90
2023-05-21T08:56:27.288Z,99.90
2023-05-21T08:58:54.167Z,99.90
2023-05-21T09:01:22.887Z,99.90
2023-05-21T09:03:51.085Z,99.90
2023-05-21T09:06:20.101Z,99.90
2023-05-21T09:08:49.995Z,99.90
2023-05-21T09:11:16.771Z,99.90
2023-05-21T09:13:43.951Z,99.90
2023-05-21T09:16:15.934Z,99.90
2023-05-21T09:18:45.172Z,99.90
2023-05-21T09:21:24.155Z,99.90
2023-05-21T09:24:09.580Z,99.90
2023-05-21T09:26:36.412Z,99.90
2023-05-21T09:29:07.848Z,99.90
2023-05-21T09:31:34.648Z,99.90
2023-05-21T09:34:01.471Z,99.90
2023-05-21T09:36:29.645Z,99.10
2023-05-21T09:39:01.262Z,99.60
2023-05-21T09:41:35.869Z,99.80
2023-05-21T09:44:03.005Z,99.90
2023-05-21T09:46:41.163Z,99.90
2023-05-21T09:49:22.146Z,98.50
2023-05-21T09:51:48.985Z,98.00
2023-05-21T09:54:18.048Z,97.70
2023-05-21T09:56:47.527Z,97.00
2023-05-21T09:59:14.292Z,96.80
2023-05-21T10:01:41.107Z,97.20
2023-05-21T10:04:08.668Z,97.30
2023-05-21T10:06:42.169Z,97.50
2023-05-21T10:09:11.273Z,97.10
2023-05-21T10:11:38.078Z,97.00
2023-05-21T10:14:05.916Z,96.80
2023-05-21T10:16:34.037Z,96.50
2023-05-21T10:19:03.793Z,95.30
2023-05-21T10:21:35.493Z,94.00
2023-05-21T10:24:02.811Z,93.60
2023-05-21T10:26:30.119Z,94.40
2023-05-21T10:29:02.961Z,94.70
2023-05-21T10:31:29.885Z,94.90
2023-05-21T10:33:56.777Z,94.10
2023-05-21T10:36:24.780Z,94.40
2023-05-21T10:38:53.838Z,94.40
2023-05-21T10:41:21.032Z,94.60
2023-05-21T10:43:53.644Z,94.90
2023-05-21T10:46:57.969Z,95.40
2023-05-21T10:49:57.025Z,94.90
2023-05-21T10:52:36.243Z,93.00
2023-05-21T10:55:41.657Z,93.70
2023-05-21T10:58:30.241Z,92.10
2023-05-21T11:00:57.133Z,90.10
2023-05-21T11:03:24.117Z,89.00
2023-05-21T11:05:56.911Z,87.90
2023-05-21T11:08:36.153Z,87.30
2023-05-21T11:11:08.378Z,85.90
2023-05-21T11:13:49.325Z,81.00
2023-05-21T11:16:16.834Z,79.50
2023-05-21T11:18:46.417Z,79.50
2023-05-21T11:21:17.470Z,76.20
2023-05-21T11:24:04.309Z,74.80
2023-05-21T11:26:55.876Z,74.60
2023-05-21T11:29:32.140Z,71.60
2023-05-21T11:32:05.806Z,70.30
2023-05-21T11:34:40.132Z,67.30
2023-05-21T11:37:25.102Z,66.10
2023-05-21T11:39:55.016Z,65.80
2023-05-21T11:42:35.067Z,67.20
2023-05-21T11:45:04.958Z,67.70
2023-05-21T11:47:32.382Z,66.30
2023-05-21T11:50:01.050Z,67.90
2023-05-21T11:52:31.178Z,69.70
2023-05-21T11:54:58.278Z,70.50
2023-05-21T11:57:29.215Z,69.80
2023-05-21T11:59:56.370Z,71.60
2023-05-21T12:02:26.005Z,74.60
2023-05-21T12:04:52.916Z,74.30
2023-05-21T12:07:22.430Z,75.20
2023-05-21T12:09:52.672Z,75.90
2023-05-21T12:12:24.188Z,76.20
2023-05-21T12:14:54.470Z,77.40
2023-05-21T12:17:24.337Z,77.30
2023-05-21T12:19:54.269Z,77.60
2023-05-21T12:22:24.592Z,79.30
2023-05-21T12:24:53.933Z,79.70
2023-05-21T12:27:23.889Z,80.30
2023-05-21T12:29:54.014Z,80.60
2023-05-21T12:32:23.313Z,81.10
2023-05-21T12:34:56.350Z,80.60
2023-05-21T12:37:35.857Z,80.30
2023-05-21T12:40:11.091Z,79.20
2023-05-21T12:42:40.299Z,79.30
2023-05-21T12:45:08.224Z,79.20
2023-05-21T12:47:37.718Z,80.00
2023-05-21T12:50:08.205Z,80.10
2023-05-21T12:52:35.043Z,81.60
2023-05-21T12:55:04.647Z,80.90
2023-05-21T12:57:40.949Z,80.60
2023-05-21T13:00:11.354Z,80.70
2023-05-21T13:02:45.851Z,81.20
2023-05-21T13:05:20.668Z,82.30
2023-05-21T13:07:52.130Z,82.20
2023-05-21T13:10:19.021Z,81.00
2023-05-21T13:12:46.376Z,80.40
2023-05-21T13:15:13.181Z,80.20
2023-05-21T13:17:40.045Z,80.20
2023-05-21T13:20:16.769Z,79.60
2023-05-21T13:22:50.402Z,79.60
2023-05-21T13:25:19.584Z,79.10
2023-05-21T13:27:48.272Z,78.60
2023-05-21T13:30:15.173Z,78.80
2023-05-21T13:32:42.383Z,77.20
2023-05-21T13:35:12.916Z,77.00
2023-05-21T13:37:40.280Z,76.80
2023-05-21T13:40:14.977Z,76.20
2023-05-21T13:42:45.720Z,77.00
2023-05-21T13:45:14.634Z,78.60
2023-05-21T13:47:41.994Z,76.50
2023-05-21T13:50:09.537Z,76.50
2023-05-21T13:52:37.041Z,76.90
2023-05-21T13:55:04.290Z,76.60
2023-05-21T13:57:31.761Z,77.00
2023-05-21T13:59:59.073Z,75.60
2023-05-21T14:02:28.302Z,73.60
2023-05-21T14:04:56.220Z,72.60
2023-05-21T14:07:25.215Z,71.30
2023-05-21T14:09:52.421Z,70.80
2023-05-21T14:12:21.810Z,67.60
2023-05-21T14:14:51.243Z,68.00
2023-05-21T14:17:20.570Z,66.70
2023-05-21T14:19:49.636Z,65.80
2023-05-21T14:22:16.488Z,65.40
2023-05-21T14:24:43.340Z,63.70
2023-05-21T14:27:14.558Z,62.80
2023-05-21T14:29:42.266Z,61.60
2023-05-21T14:32:09.101Z,61.20
2023-05-21T14:34:36.085Z,60.60
2023-05-21T14:37:02.865Z,59.80
2023-05-21T14:39:29.636Z,59.40
2023-05-21T14:41:58.926Z,59.70
2023-05-21T14:44:27.970Z,59.90
2023-05-21T14:46:54.790Z,59.60
2023-05-21T14:49:23.812Z,60.40
2023-05-21T14:51:50.688Z,61.00
2023-05-21T14:54:17.491Z,60.70
2023-05-21T14:56:44.291Z,60.40
2023-05-21T14:59:14.365Z,59.70
2023-05-21T15:01:41.286Z,60.60
2023-05-21T15:04:10.754Z,61.50
2023-05-21T15:06:37.799Z,62.00
2023-05-21T15:09:07.182Z,63.40
2023-05-21T15:11:36.794Z,64.10
2023-05-21T15:14:03.635Z,64.60
2023-05-21T15:16:32.693Z,65.10
2023-05-21T15:18:59.511Z,66.10
2023-05-21T15:21:28.074Z,66.10
2023-05-21T15:23:59.505Z,66.90
2023-05-21T15:26:26.966Z,66.50
2023-05-21T15:28:53.791Z,66.00
2023-05-21T15:31:23.710Z,66.70
2023-05-21T15:33:55.175Z,66.80
2023-05-21T15:36:22.034Z,66.50
2023-05-21T15:38:51.082Z,66.40
2023-05-21T15:41:17.927Z,66.60
2023-05-21T15:43:46.158Z,67.30
2023-05-21T15:46:12.975Z,67.40
2023-05-21T15:48:42.008Z,66.90
2023-05-21T15:51:08.830Z,67.00
2023-05-21T15:53:35.697Z,67.40
2023-05-21T15:56:03.379Z,68.40
2023-05-21T15:58:31.212Z,69.00
2023-05-21T16:00:58.127Z,68.30
2023-05-21T16:03:25.149Z,68.50
2023-05-21T16:05:52.086Z,68.60
2023-05-21T16:08:18.891Z,68.30
2023-05-21T16:10:46.073Z,68.40
2023-05-21T16:13:15.023Z,67.20
2023-05-21T16:15:41.836Z,67.70
2023-05-21T16:18:09.828Z,67.70
2023-05-21T16:20:36.866Z,67.40
2023-05-21T16:23:08.906Z,66.80
2023-05-21T16:25:36.330Z,66.80
2023-05-21T16:28:03.647Z,66.90
2023-05-21T16:30:30.491Z,68.00
2023-05-21T16:32:59.870Z,68.50
2023-05-21T16:35:26.715Z,68.70
2023-05-21T16:37:53.532Z,69.00
2023-05-21T16:40:20.405Z,70.00
2023-05-21T16:42:49.438Z,71.30
2023-05-21T16:45:23.309Z,71.20
2023-05-21T16:47:53.063Z,70.80
2023-05-21T16:50:20.022Z,70.60
2023-05-21T16:52:46.840Z,70.80
2023-05-21T16:55:18.491Z,70.70
2023-05-21T16:57:47.538Z,70.30
2023-05-21T17:00:17.105Z,70.60
2023-05-21T17:02:43.999Z,71.00
2023-05-21T17:05:11.194Z,72.30
2023-05-21T17:07:38.922Z,71.80
2023-05-21T17:10:06.421Z,72.30
2023-05-21T17:12:33.256Z,72.60
2023-05-21T17:15:00.372Z,72.70
2023-05-21T17:17:27.332Z,73.20
2023-05-21T17:19:56.431Z,73.10
2023-05-21T17:22:23.253Z,73.20
2023-05-21T17:24:50.046Z,73.30
2023-05-21T17:27:16.829Z,73.10
2023-05-21T17:29:43.726Z,73.20
2023-05-21T17:32:10.727Z,73.70
2023-05-21T17:34:42.183Z,74.00
2023-05-21T17:37:09.034Z,73.80
2023-05-21T17:39:35.896Z,74.40
2023-05-21T17:42:07.425Z,74.20
2023-05-21T17:44:38.481Z,74.80
2023-05-21T17:47:06.240Z,74.60
2023-05-21T17:49:33.183Z,74.40
2023-05-21T17:52:04.757Z,74.60
2023-05-21T17:54:31.609Z,75.20
2023-05-21T17:56:58.420Z,75.00
2023-05-21T17:59:25.442Z,75.00
2023-05-21T18:01:52.300Z,75.00
2023-05-21T18:04:19.749Z,75.10
2023-05-21T18:06:48.751Z,74.90
2023-05-21T18:09:15.694Z,75.40
2023-05-21T18:11:44.118Z,75.40
2023-05-21T18:14:10.980Z,75.60
2023-05-21T18:16:40.207Z,75.70
2023-05-21T18:19:07.301Z,75.70
2023-05-21T18:21:34.956Z,76.00
2023-05-21T18:24:02.558Z,76.00
2023-05-21T18:26:32.149Z,76.20
2023-05-21T18:28:59.091Z,76.20
2023-05-21T18:31:25.990Z,76.40
2023-05-21T18:33:52.878Z,76.70
2023-05-21T18:36:22.533Z,76.50
2023-05-21T18:38:49.407Z,76.80
2023-05-21T18:41:21.029Z,77.20
2023-05-21T18:43:47.907Z,77.40
2023-05-21T18:46:18.181Z,77.40
2023-05-21T18:48:46.183Z,77.80
2023-05-21T18:51:12.953Z,78.20
2023-05-21T18:53:40.518Z,78.20
2023-05-21T18:56:07.563Z,78.00
2023-05-21T18:58:35.758Z,78.70
2023-05-21T19:01:02.594Z,78.30
2023-05-21T19:03:29.530Z,78.60
2023-05-21T19:05:56.474Z,78.70
2023-05-21T19:08:23.941Z,79.10
2023-05-21T19:10:53.113Z,79.50
2023-05-21T19:13:22.556Z,79.60
2023-05-21T19:15:49.403Z,79.70
2023-05-21T19:18:18.297Z,80.00
2023-05-21T19:20:45.084Z,80.50
2023-05-21T19:23:11.938Z,80.90
2023-05-21T19:25:38.839Z,80.60
2023-05-21T19:28:08.243Z,80.90
2023-05-21T19:30:36.735Z,81.10
2023-05-21T19:33:06.443Z,81.40
2023-05-21T19:35:36.208Z,81.60
2023-05-21T19:38:05.148Z,82.20
2023-05-21T19:40:32.335Z,82.50
2023-05-21T19:42:59.206Z,82.40
2023-05-21T19:45:26.076Z,82.80
2023-05-21T19:47:56.528Z,83.10
2023-05-21T19:50:23.623Z,83.50
2023-05-21T19:52:53.552Z,83.80
2023-05-21T19:55:20.736Z,83.70
2023-05-21T19:57:47.576Z,83.70
2023-05-21T20:00:18.334Z,84.00
2023-05-21T20:02:45.235Z,84.10
2023-05-21T20:05:12.156Z,84.50
2023-05-21T20:07:39.033Z,84.60
2023-05-21T20:10:06.559Z,86.20
2023-05-21T20:12:33.455Z,85.50
2023-05-21T20:15:01.014Z,85.70
2023-05-21T20:17:28.771Z,85.40
2023-05-21T20:19:57.312Z,85.80
2023-05-21T20:22:24.216Z,86.20
2023-05-21T20:24:51.080Z,87.00
2023-05-21T20:27:19.532Z,87.50
2023-05-21T20:29:46.517Z,89.50
2023-05-21T20:32:15.564Z,90.00
2023-05-21T20:34:54.274Z,89.70
2023-05-21T20:37:29.023Z,90.00
2023-05-21T20:39:57.949Z,89.90
2023-05-21T20:42:34.809Z,90.20
2023-05-21T20:45:03.115Z,90.10
2023-05-21T20:47:30.308Z,90.60
2023-05-21T20:49:59.057Z,91.20
2023-05-21T20:52:26.855Z,90.80
2023-05-21T20:54:59.529Z,90.50
2023-05-21T20:57:27.410Z,90.70
2023-05-21T20:59:54.327Z,90.80
2023-05-21T21:02:21.684Z,91.40
2023-05-21T21:04:49.239Z,91.80
2023-05-21T21:07:18.190Z,91.60
2023-05-21T21:09:49.154Z,92.20
2023-05-21T21:12:25.412Z,91.80
2023-05-21T21:14:56.210Z,92.10
2023-05-21T21:17:23.465Z,92.10
2023-05-21T21:19:52.525Z,92.60
2023-05-21T21:22:19.389Z,92.10
2023-05-21T21:24:46.236Z,92.70
2023-05-21T21:27:13.160Z,92.60
2023-05-21T21:29:42.730Z,92.80
2023-05-21T21:32:11.725Z,92.60
2023-05-21T21:34:38.623Z,92.50
2023-05-21T21:37:05.655Z,93.20
2023-05-21T21:39:32.493Z,92.80
2023-05-21T21:41:59.396Z,93.40
2023-05-21T21:44:28.396Z,93.50
2023-05-21T21:46:55.197Z,94.10
2023-05-21T21:49:24.274Z,93.40
2023-05-21T21:51:51.368Z,93.90
2023-05-21T21:54:18.183Z,93.40
2023-05-21T21:56:47.224Z,94.30
2023-05-21T21:59:14.029Z,93.60
2023-05-21T22:01:43.237Z,93.70
2023-05-21T22:04:11.305Z,93.50
2023-05-21T22:06:40.651Z,93.50
2023-05-21T22:09:07.541Z,93.40
2023-05-21T22:11:34.416Z,93.90
2023-05-21T22:14:01.196Z,93.80
2023-05-21T22:16:28.382Z,94.10
2023-05-21T22:18:55.434Z,94.10
2023-05-21T22:21:27.212Z,94.10
2023-05-21T22:23:54.289Z,94.30
2023-05-21T22:26:21.782Z,94.10
2023-05-21T22:28:48.597Z,94.10
2023-05-21T22:31:17.728Z,94.40
2023-05-21T22:33:44.545Z,94.70
2023-05-21T22:36:11.700Z,94.60
2023-05-21T22:38:38.485Z,94.50
2023-05-21T22:41:08.597Z,94.80
2023-05-21T22:43:38.181Z,95.20
2023-05-21T22:46:05.204Z,95.00
2023-05-21T22:48:32.117Z,94.70
2023-05-21T22:51:01.699Z,94.90
2023-05-21T22:53:32.112Z,94.80
2023-05-21T22:56:01.277Z,94.80
2023-05-21T22:58:28.101Z,94.80
2023-05-21T23:00:59.279Z,95.00
2023-05-21T23:03:26.110Z,95.40
2023-05-21T23:05:55.566Z,95.70
2023-05-21T23:08:22.543Z,95.40
2023-05-21T23:10:49.444Z,95.80
2023-05-21T23:13:18.683Z,96.20
2023-05-21T23:15:48.637Z,96.00
2023-05-21T23:18:15.747Z,96.20
2023-05-21T23:20:43.815Z,96.40
2023-05-21T23:23:13.189Z,96.80
2023-05-21T23:25:40.012Z,97.60
2023-05-21T23:28:09.427Z,97.50
2023-05-21T23:30:36.509Z,97.80
2023-05-21T23:33:05.781Z,97.80
2023-05-21T23:35:32.587Z,98.00
2023-05-21T23:37:59.383Z,97.80
2023-05-21T23:40:26.173Z,97.80
2023-05-21T23:42:57.943Z,97.40
2023-05-21T23:45:27.169Z,97.90
2023-05-21T23:47:54.070Z,98.40
2023-05-21T23:50:20.913Z,98.00
2023-05-21T23:52:47.753Z,97.80
2023-05-21T23:55:14.918Z,98.00
2023-05-21T23:57:44.132Z,98.50
